createdAt,value
2023-04-22T00:01:48.012Z,98298.69
2023-04-22T00:04:15.243Z,98295.23
2023-04-22T00:06:42.593Z,98295.33
2023-04-22T00:09:10.503Z,98296.89
2023-04-22T00:11:37.432Z,98293.36
2023-04-22T00:14:04.476Z,98297.23
2023-04-22T00:16:31.921Z,98297.79
2023-04-22T00:18:58.935Z,98298.36
2023-04-22T00:21:27.366Z,98295.70
2023-04-22T00:23:54.630Z,98300.06
2023-04-22T00:26:21.827Z,98295.21
2023-04-22T00:28:48.766Z,98296.64
2023-04-22T00:31:15.735Z,98297.20
2023-04-22T00:33:43.673Z,98295.52
2023-04-22T00:36:10.851Z,98296.97
2023-04-22T00:38:37.896Z,98296.00
2023-04-22T00:41:04.903Z,98299.16
2023-04-22T00:43:33.108Z,98297.62
2023-04-22T00:46:00.072Z,98297.44
2023-04-22T00:48:28.758Z,98299.67
2023-04-22T00:50:56.063Z,98299.33
2023-04-22T00:53:23.066Z,98304.50
2023-04-22T00:55:50.008Z,98301.58
2023-04-22T00:58:17.976Z,98300.65
2023-04-22T01:00:45.002Z,98305.15
2023-04-22T01:03:12.531Z,98304.70
2023-04-22T01:05:40.469Z,98302.44
2023-04-22T01:08:08.481Z,98303.23
2023-04-22T01:10:36.070Z,98303.07
2023-04-22T01:13:05.243Z,98301.61
2023-04-22T01:15:32.756Z,98302.77
2023-04-22T01:18:01.335Z,98304.65
2023-04-22T01:20:29.767Z,98303.44
2023-04-22T01:23:00.007Z,98301.46
2023-04-22T01:25:27.064Z,98303.02
2023-04-22T01:27:54.239Z,98302.98
2023-04-22T01:30:21.212Z,98306.49
2023-04-22T01:32:49.388Z,98305.02
2023-04-22T01:35:16.440Z,98307.23
2023-04-22T01:37:43.475Z,98307.80
2023-04-22T01:40:12.468Z,98304.90
2023-04-22T01:42:40.004Z,98305.20
2023-04-22T01:45:07.911Z,98302.44
2023-04-22T01:47:35.187Z,98302.76
2023-04-22T01:50:02.220Z,98300.50
2023-04-22T01:52:29.793Z,98301.48
2023-04-22T01:54:56.766Z,98302.20
2023-04-22T01:57:23.730Z,98304.41
2023-04-22T01:59:50.729Z,98305.81
2023-04-22T02:02:17.800Z,98306.63
2023-04-22T02:04:44.909Z,98298.02
2023-04-22T02:07:11.886Z,98295.55
2023-04-22T02:09:39.283Z,98303.53
2023-04-22T02:12:06.950Z,98300.61
2023-04-22T02:14:33.926Z,98299.42
2023-04-22T02:17:03.407Z,98296.21
2023-04-22T02:19:30.467Z,98302.25
2023-04-22T02:21:57.655Z,98304.34
2023-04-22T02:24:24.617Z,98306.67
2023-04-22T02:26:51.694Z,98306.23
2023-04-22T02:29:18.796Z,98301.16
2023-04-22T02:31:47.620Z,98296.11
2023-04-22T02:34:14.777Z,98301.04
2023-04-22T02:36:41.750Z,98298.99
2023-04-22T02:39:09.023Z,98296.40
2023-04-22T02:41:36.251Z,98302.17
2023-04-22T02:44:03.453Z,98304.30
2023-04-22T02:46:31.242Z,98307.34
2023-04-22T02:48:58.262Z,98305.90
2023-04-22T02:51:25.354Z,98300.02
2023-04-22T02:53:53.021Z,98299.98
2023-04-22T02:56:20.765Z,98301.71
2023-04-22T02:58:47.703Z,98301.19
2023-04-22T03:01:14.903Z,98306.16
2023-04-22T03:03:42.070Z,98305.23
2023-04-22T03:06:10.318Z,98302.70
2023-04-22T03:08:38.125Z,98306.04
2023-04-22T03:11:05.288Z,98305.60
2023-04-22T03:13:32.912Z,98306.74
2023-04-22T03:15:59.921Z,98309.13
2023-04-22T03:18:27.498Z,98317.29
2023-04-22T03:20:54.982Z,98322.61
2023-04-22T03:23:21.975Z,98324.30
2023-04-22T03:25:49.172Z,98325.27
2023-04-22T03:28:16.354Z,98327.65
2023-04-22T03:30:43.847Z,98326.11
2023-04-22T03:33:11.655Z,98328.20
2023-04-22T03:35:49.876Z,98329.35
2023-04-22T03:38:17.870Z,98340.46
2023-04-22T03:40:45.004Z,98341.92
2023-04-22T03:43:21.402Z,98344.44
2023-04-22T03:45:57.262Z,98346.53
2023-04-22T03:48:29.178Z,98348.45
2023-04-22T03:50:56.221Z,98347.63
2023-04-22T03:53:23.811Z,98345.71
2023-04-22T03:55:51.851Z,98347.34
2023-04-22T03:58:19.253Z,98348.59
2023-04-22T04:00:46.496Z,98354.45
2023-04-22T04:03:16.869Z,98357.38
2023-04-22T04:05:45.107Z,98358.42
2023-04-22T04:08:12.382Z,98361.29
2023-04-22T04:10:39.805Z,98364.61
2023-04-22T04:13:06.806Z,98366.16
2023-04-22T04:15:40.798Z,98365.27
2023-04-22T04:18:09.708Z,98367.71
2023-04-22T04:20:37.397Z,98371.58
2023-04-22T04:23:04.500Z,98374.70
2023-04-22T04:25:38.901Z,98380.87
2023-04-22T04:28:11.310Z,98381.31
2023-04-22T04:30:38.476Z,98382.64
2023-04-22T04:33:07.379Z,98385.52
2023-04-22T04:35:35.455Z,98388.02
2023-04-22T04:38:02.730Z,98387.59
2023-04-22T04:40:30.772Z,98386.08
2023-04-22T04:43:08.945Z,98386.84
2023-04-22T04:45:49.134Z,98384.85
2023-04-22T04:48:20.279Z,98386.86
2023-04-22T04:50:54.105Z,98384.92
2023-04-22T04:53:21.833Z,98388.34
2023-04-22T04:55:49.454Z,98390.48
2023-04-22T04:58:20.965Z,98388.96
2023-04-22T05:00:50.466Z,98388.87
2023-04-22T05:03:19.272Z,98384.19
2023-04-22T05:05:48.734Z,98384.52
2023-04-22T05:08:16.156Z,98388.36
2023-04-22T05:10:43.482Z,98389.42
2023-04-22T05:13:10.943Z,98386.13
2023-04-22T05:15:40.547Z,98383.14
2023-04-22T05:18:08.730Z,98385.13
2023-04-22T05:20:36.279Z,98386.86
2023-04-22T05:23:04.426Z,98386.38
2023-04-22T05:25:32.060Z,98385.02
2023-04-22T05:28:03.689Z,98386.61
2023-04-22T05:30:34.976Z,98388.11
2023-04-22T05:33:02.175Z,98383.09
2023-04-22T05:35:29.428Z,98384.31
2023-04-22T05:37:56.371Z,98382.27
2023-04-22T05:40:23.492Z,98383.14
2023-04-22T05:42:50.763Z,98381.08
2023-04-22T05:45:17.835Z,98382.45
2023-04-22T05:47:45.198Z,98383.24
2023-04-22T05:50:12.421Z,98382.89
2023-04-22T05:52:47.464Z,98385.37
2023-04-22T05:55:16.153Z,98383.00
2023-04-22T05:57:43.299Z,98387.38
2023-04-22T06:00:21.213Z,98387.41
2023-04-22T06:02:53.048Z,98388.61
2023-04-22T06:05:20.249Z,98390.97
2023-04-22T06:07:47.236Z,98382.19
2023-04-22T06:10:14.161Z,98381.33
2023-04-22T06:12:41.113Z,98381.73
2023-04-22T06:15:08.679Z,98386.08
2023-04-22T06:17:36.508Z,98385.52
2023-04-22T06:20:03.745Z,98387.58
2023-04-22T06:22:31.180Z,98385.98
2023-04-22T06:24:58.108Z,98387.56
2023-04-22T06:27:25.011Z,98386.46
2023-04-22T06:29:51.964Z,98384.66
2023-04-22T06:32:18.942Z,98383.05
2023-04-22T06:34:46.435Z,98381.83
2023-04-22T06:37:13.437Z,98383.79
2023-04-22T06:39:40.975Z,98384.66
2023-04-22T06:42:44.155Z,98382.09
2023-04-22T06:45:37.168Z,98384.44
2023-04-22T06:48:17.904Z,98378.46
2023-04-22T06:51:04.129Z,98377.48
2023-04-22T06:53:31.135Z,98376.02
2023-04-22T06:55:58.034Z,98377.02
2023-04-22T06:58:25.576Z,98377.82
2023-04-22T07:00:53.038Z,98376.27
2023-04-22T07:03:20.213Z,98378.60
2023-04-22T07:05:54.583Z,98379.81
2023-04-22T07:08:22.692Z,98384.44
2023-04-22T07:10:49.774Z,98380.58
2023-04-22T07:13:27.311Z,98380.59
2023-04-22T07:15:54.543Z,98382.18
2023-04-22T07:18:21.987Z,98380.35
2023-04-22T07:20:49.010Z,98382.30
2023-04-22T07:23:16.137Z,98386.18
2023-04-22T07:25:43.050Z,98385.73
2023-04-22T07:28:10.040Z,98384.02
2023-04-22T07:30:36.913Z,98382.13
2023-04-22T07:33:04.246Z,98380.71
2023-04-22T07:35:32.053Z,98381.91
2023-04-22T07:37:58.954Z,98380.25
2023-04-22T07:40:25.918Z,98381.91
2023-04-22T07:42:53.870Z,98381.45
2023-04-22T07:45:20.882Z,98381.25
2023-04-22T07:47:47.952Z,98384.08
2023-04-22T07:50:15.121Z,98380.32
2023-04-22T07:52:42.096Z,98382.59
2023-04-22T07:55:09.124Z,98376.46
2023-04-22T07:57:39.960Z,98371.17
2023-04-22T08:00:08.015Z,98370.29
2023-04-22T08:02:42.299Z,98370.50
2023-04-22T08:05:09.643Z,98369.02
2023-04-22T08:07:36.696Z,98368.06
2023-04-22T08:10:04.834Z,98365.91
2023-04-22T08:12:32.027Z,98368.31
2023-04-22T08:14:58.918Z,98364.32
2023-04-22T08:17:26.056Z,98361.93
2023-04-22T08:19:53.031Z,98362.10
2023-04-22T08:22:20.036Z,98363.19
2023-04-22T08:24:46.950Z,98359.23
2023-04-22T08:27:13.820Z,98355.89
2023-04-22T08:29:41.159Z,98356.72
2023-04-22T08:32:08.279Z,98357.13
2023-04-22T08:34:37.212Z,98357.45
2023-04-22T08:37:04.243Z,98358.45
2023-04-22T08:39:31.321Z,98357.85
2023-04-22T08:41:58.452Z,98354.43
2023-04-22T08:44:25.773Z,98355.53
2023-04-22T08:46:52.854Z,98350.71
2023-04-22T08:49:19.950Z,98354.89
2023-04-22T08:51:46.893Z,98356.74
2023-04-22T08:54:13.958Z,98354.08
2023-04-22T08:56:41.988Z,98359.02
2023-04-22T08:59:12.867Z,98353.85
2023-04-22T09:01:42.976Z,98352.04
2023-04-22T09:04:10.677Z,98353.23
2023-04-22T09:06:39.029Z,98349.08
2023-04-22T09:09:06.200Z,98349.75
2023-04-22T09:11:33.253Z,98352.02
2023-04-22T09:14:00.305Z,98352.14
2023-04-22T09:16:27.505Z,98354.15
2023-04-22T09:18:54.372Z,98356.62
2023-04-22T09:21:21.570Z,98357.30
2023-04-22T09:23:52.975Z,98364.30
2023-04-22T09:26:24.444Z,98360.63
2023-04-22T09:28:54.934Z,98358.91
2023-04-22T09:31:22.252Z,98353.73
2023-04-22T09:33:53.684Z,98349.95
2023-04-22T09:36:29.729Z,98347.54
2023-04-22T09:38:58.601Z,98349.14
2023-04-22T09:41:29.552Z,98348.34
2023-04-22T09:43:57.970Z,98348.35
2023-04-22T09:46:25.883Z,98345.41
2023-04-22T09:48:54.968Z,98341.77
2023-04-22T09:51:22.356Z,98339.03
2023-04-22T09:54:00.042Z,98342.59
2023-04-22T09:56:59.725Z,98337.27
2023-04-22T09:59:32.129Z,98337.96
2023-04-22T10:02:00.912Z,98337.50
2023-04-22T10:04:28.540Z,98336.30
2023-04-22T10:06:56.347Z,98336.58
2023-04-22T10:09:24.427Z,98334.69
2023-04-22T10:11:52.866Z,98331.38
2023-04-22T10:14:21.552Z,98331.89
2023-04-22T10:16:48.610Z,98340.44
2023-04-22T10:19:21.092Z,98338.95
2023-04-22T10:21:49.753Z,98342.13
2023-04-22T10:24:17.993Z,98345.66
2023-04-22T10:26:56.170Z,98345.08
2023-04-22T10:29:24.685Z,98342.23
2023-04-22T10:32:17.993Z,98347.02
2023-04-22T10:34:48.056Z,98348.88
2023-04-22T10:37:17.977Z,98352.73
2023-04-22T10:40:12.607Z,98349.83
2023-04-22T10:42:40.632Z,98351.98
2023-04-22T10:45:07.813Z,98353.85
2023-04-22T10:47:36.136Z,98352.98
2023-04-22T10:50:22.385Z,98357.45
2023-04-22T10:52:57.503Z,98356.14
2023-04-22T10:55:25.309Z,98354.69
2023-04-22T10:57:53.075Z,98356.27
2023-04-22T11:00:23.027Z,98355.16
2023-04-22T11:03:05.362Z,98354.19
2023-04-22T11:05:34.297Z,98358.30
2023-04-22T11:08:16.716Z,98360.36
2023-04-22T11:10:45.994Z,98363.77
2023-04-22T11:13:21.295Z,98362.66
2023-04-22T11:15:49.976Z,98364.56
2023-04-22T11:18:22.032Z,98366.64
2023-04-22T11:20:49.933Z,98366.31
2023-04-22T11:23:19.157Z,98369.85
2023-04-22T11:25:46.113Z,98369.60
2023-04-22T11:28:13.131Z,98368.77
2023-04-22T11:30:40.136Z,98368.94
2023-04-22T11:33:06.987Z,98370.59
2023-04-22T11:35:34.871Z,98371.05
2023-04-22T11:38:03.677Z,98371.96
2023-04-22T11:40:39.907Z,98368.92
2023-04-22T11:43:09.230Z,98369.52
2023-04-22T11:45:37.268Z,98370.40
2023-04-22T11:48:06.543Z,98367.16
2023-04-22T11:50:35.525Z,98368.67
2023-04-22T11:53:19.479Z,98368.17
2023-04-22T11:55:50.934Z,98370.68
2023-04-22T11:58:25.105Z,98365.89
2023-04-22T12:00:52.978Z,98366.02
2023-04-22T12:03:25.106Z,98366.45
2023-04-22T12:05:57.337Z,98366.15
2023-04-22T12:08:26.275Z,98362.96
2023-04-22T12:10:58.179Z,98360.41
2023-04-22T12:13:50.732Z,98360.32
2023-04-22T12:16:18.487Z,98365.67
2023-04-22T12:18:49.485Z,98364.60
2023-04-22T12:21:24.712Z,98359.04
2023-04-22T12:23:55.462Z,98358.05
2023-04-22T12:26:26.626Z,98355.58
2023-04-22T12:28:57.764Z,98355.77
2023-04-22T12:31:24.985Z,98352.48
2023-04-22T12:33:52.084Z,98351.61
2023-04-22T12:36:21.033Z,98353.79
2023-04-22T12:38:48.139Z,98348.64
2023-04-22T12:41:15.980Z,98354.23
2023-04-22T12:43:42.939Z,98347.27
2023-04-22T12:46:09.893Z,98346.98
2023-04-22T12:48:37.656Z,98349.29
2023-04-22T12:51:05.821Z,98347.27
2023-04-22T12:53:32.681Z,98345.18
2023-04-22T12:55:59.614Z,98344.45
2023-04-22T12:58:26.634Z,98346.13
2023-04-22T13:00:53.610Z,98344.32
2023-04-22T13:03:21.046Z,98345.20
2023-04-22T13:05:48.378Z,98345.26
2023-04-22T13:08:15.402Z,98344.92
2023-04-22T13:10:42.391Z,98344.95
2023-04-22T13:13:18.412Z,98344.39
2023-04-22T13:15:47.714Z,98346.55
2023-04-22T13:18:16.882Z,98346.85
2023-04-22T13:20:44.173Z,98344.51
2023-04-22T13:23:11.496Z,98347.34
2023-04-22T13:25:38.591Z,98348.77
2023-04-22T13:28:05.864Z,98347.38
2023-04-22T13:30:33.306Z,98346.58
2023-04-22T13:33:00.363Z,98347.73
2023-04-22T13:35:27.365Z,98348.16
2023-04-22T13:37:54.391Z,98345.60
2023-04-22T13:40:21.588Z,98344.26
2023-04-22T13:42:48.669Z,98341.95
2023-04-22T13:45:15.675Z,98345.23
2023-04-22T13:47:43.125Z,98344.14
2023-04-22T13:50:10.739Z,98343.48
2023-04-22T13:52:37.785Z,98341.11
2023-04-22T13:55:05.520Z,98341.61
2023-04-22T13:57:33.004Z,98339.52
2023-04-22T14:00:00.320Z,98342.71
2023-04-22T14:02:27.404Z,98342.67
2023-04-22T14:04:54.604Z,98336.96
2023-04-22T14:07:21.581Z,98340.19
2023-04-22T14:09:48.515Z,98339.90
2023-04-22T14:12:15.468Z,98337.70
2023-04-22T14:14:42.593Z,98339.27
2023-04-22T14:17:09.556Z,98340.23
2023-04-22T14:19:39.187Z,98338.89
2023-04-22T14:22:06.930Z,98341.13
2023-04-22T14:24:34.829Z,98342.20
2023-04-22T14:27:02.010Z,98342.98
2023-04-22T14:29:29.958Z,98337.10
2023-04-22T14:31:57.784Z,98338.66
2023-04-22T14:34:24.732Z,98338.65
2023-04-22T14:36:51.632Z,98338.87
2023-04-22T14:39:18.595Z,98338.11
2023-04-22T14:41:45.610Z,98335.75
2023-04-22T14:44:12.823Z,98339.98
2023-04-22T14:46:39.858Z,98340.19
2023-04-22T14:49:06.813Z,98338.42
2023-04-22T14:51:34.974Z,98337.61
2023-04-22T14:54:02.242Z,98338.56
2023-04-22T14:56:29.450Z,98337.70
2023-04-22T14:58:56.361Z,98338.50
2023-04-22T15:01:23.433Z,98336.24
2023-04-22T15:03:51.600Z,98334.89
2023-04-22T15:06:18.647Z,98339.09
2023-04-22T15:08:45.910Z,98338.61
2023-04-22T15:11:12.852Z,98337.31
2023-04-22T15:13:39.871Z,98337.00
2023-04-22T15:16:06.923Z,98337.29
2023-04-22T15:18:33.934Z,98338.18
2023-04-22T15:21:03.363Z,98332.48
2023-04-22T15:23:30.494Z,98333.66
2023-04-22T15:25:57.752Z,98334.33
2023-04-22T15:28:24.689Z,98332.39
2023-04-22T15:30:51.631Z,98338.10
2023-04-22T15:33:18.523Z,98335.45
2023-04-22T15:35:47.592Z,98340.64
2023-04-22T15:38:14.575Z,98343.44
2023-04-22T15:40:41.616Z,98342.84
2023-04-22T15:43:08.525Z,98344.13
2023-04-22T15:45:35.892Z,98344.38
2023-04-22T15:48:03.270Z,98342.69
2023-04-22T15:50:30.333Z,98342.59
2023-04-22T15:52:57.327Z,98345.25
2023-04-22T15:55:24.373Z,98343.02
2023-04-22T15:57:51.525Z,98344.36
2023-04-22T16:00:19.067Z,98347.18
2023-04-22T16:02:54.921Z,98346.84
2023-04-22T16:05:24.783Z,98344.75
2023-04-22T16:07:53.086Z,98344.30
2023-04-22T16:10:20.143Z,98345.48
2023-04-22T16:12:47.199Z,98346.53
2023-04-22T16:15:14.195Z,98348.06
2023-04-22T16:17:43.608Z,98351.02
2023-04-22T16:20:10.749Z,98353.38
2023-04-22T16:22:38.678Z,98353.23
2023-04-22T16:25:06.524Z,98351.00
2023-04-22T16:27:33.730Z,98352.85
2023-04-22T16:30:00.747Z,98348.73
2023-04-22T16:32:27.721Z,98349.23
2023-04-22T16:34:54.857Z,98348.58
2023-04-22T16:37:21.769Z,98347.68
2023-04-22T16:39:49.020Z,98348.23
2023-04-22T16:42:15.986Z,98353.05
2023-04-22T16:44:42.903Z,98352.95
2023-04-22T16:47:09.906Z,98350.70
2023-04-22T16:49:36.823Z,98351.25
2023-04-22T16:52:03.753Z,98353.85
2023-04-22T16:54:31.139Z,98347.83
2023-04-22T16:56:58.216Z,98353.42
2023-04-22T16:59:25.180Z,98350.10
2023-04-22T17:01:52.470Z,98346.73
2023-04-22T17:04:19.495Z,98346.45
2023-04-22T17:06:46.577Z,98344.56
2023-04-22T17:09:13.757Z,98349.36
2023-04-22T17:11:40.709Z,98354.66
2023-04-22T17:14:07.754Z,98355.59
2023-04-22T17:16:34.778Z,98358.45
2023-04-22T17:19:01.914Z,98359.45
2023-04-22T17:21:29.402Z,98364.29
2023-04-22T17:23:58.732Z,98366.88
2023-04-22T17:26:26.162Z,98373.20
2023-04-22T17:28:53.182Z,98373.30
2023-04-22T17:31:20.480Z,98380.36
2023-04-22T17:33:47.441Z,98383.15
2023-04-22T17:36:14.379Z,98391.17
2023-04-22T17:38:41.393Z,98392.50
2023-04-22T17:41:08.702Z,98394.74
2023-04-22T17:43:35.835Z,98398.70
2023-04-22T17:46:03.142Z,98399.17
2023-04-22T17:48:30.303Z,98400.38
2023-04-22T17:50:58.252Z,98402.53
2023-04-22T17:53:25.850Z,98409.41
2023-04-22T17:55:52.780Z,98409.08
2023-04-22T17:58:19.798Z,98414.14
2023-04-22T18:00:46.815Z,98416.77
2023-04-22T18:03:13.873Z,98418.19
2023-04-22T18:05:43.316Z,98424.96
2023-04-22T18:08:10.993Z,98426.48
2023-04-22T18:10:38.178Z,98425.36
2023-04-22T18:13:06.096Z,98431.23
2023-04-22T18:15:33.133Z,98432.84
2023-04-22T18:18:00.130Z,98437.86
2023-04-22T18:20:27.246Z,98440.15
2023-04-22T18:22:56.360Z,98438.88
2023-04-22T18:25:24.330Z,98443.25
2023-04-22T18:27:55.059Z,98445.23
2023-04-22T18:30:23.492Z,98447.89
2023-04-22T18:32:50.890Z,98447.95
2023-04-22T18:35:17.944Z,98446.52
2023-04-22T18:37:45.589Z,98445.92
2023-04-22T18:40:12.764Z,98445.45
2023-04-22T18:42:40.477Z,98447.14
2023-04-22T18:45:08.015Z,98443.90
2023-04-22T18:47:35.244Z,98446.36
2023-04-22T18:50:02.292Z,98450.41
2023-04-22T18:52:29.584Z,98449.27
2023-04-22T18:54:56.608Z,98449.96
2023-04-22T18:57:23.753Z,98451.13
2023-04-22T18:59:51.172Z,98453.90
2023-04-22T19:02:18.133Z,98450.94
2023-04-22T19:04:45.271Z,98453.69
2023-04-22T19:07:12.298Z,98450.38
2023-04-22T19:09:39.373Z,98453.65
2023-04-22T19:12:13.623Z,98454.73
2023-04-22T19:14:41.284Z,98456.19
2023-04-22T19:17:09.504Z,98452.68
2023-04-22T19:19:36.548Z,98454.94
2023-04-22T19:22:03.683Z,98451.25
2023-04-22T19:24:33.658Z,98451.73
2023-04-22T19:27:02.523Z,98452.86
2023-04-22T19:29:29.729Z,98453.74
2023-04-22T19:31:59.961Z,98456.13
2023-04-22T19:34:27.468Z,98451.55
2023-04-22T19:36:54.812Z,98453.09
2023-04-22T19:39:22.137Z,98449.52
2023-04-22T19:41:49.168Z,98451.88
2023-04-22T19:44:16.507Z,98452.20
2023-04-22T19:50:07.134Z,98457.80
2023-04-22T19:52:34.920Z,98462.47
2023-04-22T19:55:09.376Z,98461.48
2023-04-22T19:57:37.105Z,98464.36
2023-04-22T20:00:07.783Z,98467.08
2023-04-22T20:02:42.188Z,98462.35
2023-04-22T20:05:10.297Z,98464.67
2023-04-22T20:07:38.383Z,98465.60
2023-04-22T20:10:06.770Z,98468.29
2023-04-22T20:12:34.229Z,98470.58
2023-04-22T20:15:01.307Z,98471.38
2023-04-22T20:17:28.588Z,98470.94
2023-04-22T20:19:55.848Z,98465.16
2023-04-22T20:22:27.033Z,98466.38
2023-04-22T20:25:02.615Z,98468.55
2023-04-22T20:27:30.765Z,98472.27
2023-04-22T20:29:58.343Z,98472.56
2023-04-22T20:32:26.068Z,98480.98
2023-04-22T20:34:53.784Z,98480.86
2023-04-22T20:37:21.089Z,98486.27
2023-04-22T20:39:51.609Z,98485.35
2023-04-22T20:42:19.158Z,98486.27
2023-04-22T20:44:46.432Z,98483.15
2023-04-22T20:47:13.885Z,98481.84
2023-04-22T20:49:41.173Z,98480.70
2023-04-22T20:52:08.760Z,98480.65
2023-04-22T20:54:36.210Z,98483.23
2023-04-22T20:57:05.109Z,98479.00
2023-04-22T20:59:32.917Z,98477.84
2023-04-22T21:02:57.016Z,98476.35
2023-04-22T21:05:24.119Z,98476.60
2023-04-22T21:07:52.282Z,98481.52
2023-04-22T21:10:22.615Z,98479.05
2023-04-22T21:12:49.985Z,98479.81
2023-04-22T21:15:17.481Z,98475.34
2023-04-22T21:17:52.029Z,98480.50
2023-04-22T21:20:19.702Z,98480.94
2023-04-22T21:22:46.923Z,98477.46
2023-04-22T21:25:17.607Z,98478.34
2023-04-22T21:27:44.792Z,98476.86
2023-04-22T21:30:12.379Z,98475.46
2023-04-22T21:32:41.400Z,98479.30
2023-04-22T21:35:11.992Z,98478.98
2023-04-22T21:37:39.239Z,98475.66
2023-04-22T21:40:07.225Z,98477.75
2023-04-22T21:42:34.340Z,98477.75
2023-04-22T21:45:01.314Z,98480.41
2023-04-22T21:47:28.733Z,98482.41
2023-04-22T21:49:56.170Z,98492.16
2023-04-22T21:52:23.491Z,98493.73
2023-04-22T21:54:50.757Z,98485.92
2023-04-22T21:57:17.728Z,98486.21
2023-04-22T21:59:44.678Z,98484.65
2023-04-22T22:02:11.733Z,98486.86
2023-04-22T22:04:39.564Z,98487.77
2023-04-22T22:07:07.025Z,98485.34
2023-04-22T22:09:34.125Z,98488.21
2023-04-22T22:12:01.944Z,98490.19
2023-04-22T22:14:29.190Z,98485.45
2023-04-22T22:16:56.405Z,98489.19
2023-04-22T22:19:27.695Z,98485.50
2023-04-22T22:21:54.674Z,98488.56
2023-04-22T22:24:21.933Z,98487.02
2023-04-22T22:26:50.394Z,98485.54
2023-04-22T22:29:17.458Z,98484.72
2023-04-22T22:31:44.663Z,98485.33
2023-04-22T22:34:11.698Z,98484.49
2023-04-22T22:36:38.678Z,98480.48
2023-04-22T22:39:05.898Z,98487.23
2023-04-22T22:41:32.894Z,98488.22
2023-04-22T22:43:59.842Z,98489.50
2023-04-22T22:46:26.899Z,98490.34
2023-04-22T22:48:54.629Z,98489.16
2023-04-22T22:51:21.980Z,98489.50
2023-04-22T22:53:49.017Z,98488.42
2023-04-22T22:56:18.108Z,98489.22
2023-04-22T22:58:46.259Z,98490.77
2023-04-22T23:01:13.226Z,98492.13
2023-04-22T23:03:40.397Z,98489.95
2023-04-22T23:06:07.771Z,98488.45
2023-04-22T23:08:34.978Z,98492.00
2023-04-22T23:11:02.136Z,98489.93
2023-04-22T23:13:29.664Z,98490.59
2023-04-22T23:15:56.598Z,98494.27
2023-04-22T23:18:23.982Z,98493.61
2023-04-22T23:20:51.854Z,98491.30
2023-04-22T23:23:19.005Z,98495.14
2023-04-22T23:25:46.857Z,98495.33
2023-04-22T23:28:14.087Z,98498.06
2023-04-22T23:30:41.113Z,98496.30
2023-04-22T23:33:08.178Z,98500.27
2023-04-22T23:35:35.130Z,98495.45
2023-04-22T23:38:02.146Z,98490.97
2023-04-22T23:40:29.486Z,98490.83
2023-04-22T23:42:56.462Z,98491.71
2023-04-22T23:45:23.514Z,98492.42
2023-04-22T23:47:50.517Z,98492.59
2023-04-22T23:50:19.198Z,98491.84
2023-04-22T23:52:46.849Z,98493.99
2023-04-22T23:55:16.093Z,98497.02
2023-04-22T23:57:43.285Z,98491.90
